Lake Santeetlah, North Carolina
Current Conditions -  °F | °C
As of 9:35 PM on Friday 28 Nov 2014 (Local Time) from KRHP Reporting Station
Clear Clear  
Wind Chill: 28°   Ceiling: Unl
Heat Index: 28°   Visibility: 10mi
Dew Point: 24°   Wind: 0mph
Humidity: 83%   Direction: NA
Pressure: 30.25"   Gusts: NA
Location:  35.3435°N, 83.8508°W
Report Text: KRHP 290235Z AUTO 00000KT 10SM CLR M02/M05 A3025 RMK AO2 T10211047
Loading
Personal Weather Stations






























Interactive Weather Map New forecast layout! Learn more

10-Day Weather Forecast

Advertisements
Track Severe Weather on mobile